KRID/RID METAR and TAF weather

Enter ICAO airport designator
Station Type Date Time Source
KRID METAR 2021/05/13 06:55 UTC NOAA

KRID 130655Z AUTO 04003KT 10SM CLR 06/01 A3038 RMK AO2


Station Type Date Time Source
KRID Decoded METAR 2021/05/13 06:55 UTC NOAA

Station name not available
May 13, 2021 - 02:55 AM EDT / 2021.05.13 0655 UTC
Wind: from the NE (040 degrees) at 3 MPH (3 KT):0
Visibility: 10 mile(s):0
Sky conditions: clear
Temperature: 42 F (6 C)
Dew Point: 33 F (1 C)
Relative Humidity: 70%
Pressure (altimeter): 30.38 in. Hg (1028 hPa)
ob: KRID 130655Z AUTO 04003KT 10SM CLR 06/01 A3038 RMK AO2
cycle: 7

Station Type Date Time Source
KRID TAF UTC NOAA

Error!

Example: see airport list